PWSweather.com
Personal Weather Stations
Station Observations
FAUSKE
Nordland, Norway, FauskeNO 8200

Nordland, NorwayFauskeNO 8200

Lat: 67.2607586, Lon: 15.4114204

Elevation: 40

Station Type: Davis Vantage PRO2

http://www.bjornli.net/weather.html

Latest ConditionsUpdated 7:40:09 AM GMT+01:01 Sunday, Dec 21, 2014
Currently Today's Max Today's Min Today's Average
Temperature 18.1°F-7.7°C 27.9°F-2.3°C 18.1°F-7.7°C 24.4°F-4.2°C
Dew Point 15.7°F-9.1°C 25.9°F-3.4°C 15.7°F-9.1°C 22.5°F-5.3°C
Winds Calm Calm 15.0 mph ESE24.1 kmh ESE - 4.3 mph 6.9 kmh
Wind Gusts -- 20.0 mph32.2 kmh - -
Humidity 90% 94% 90% 92%
Pressure 29.34 in993.6 mb 29.34 in993.6 mb 29.11 in985.8 mb -
Hour Temp Dew Point Humidity Winds Wind Gusts Pressure Precip Precip Rate Daily Precip Total
07:40 AM 18.1°F-7.7°C 15.7°F-9.1°C 90% Calm Calm -- 29.34 in993.6 mb 0.00 in0.0 mm 0.00 in/hr0.0 mm/hr 0.00 in0.0 mm
07:30 AM 19.4°F-7.0°C 17.2°F-8.2°C 91% Calm Calm -- 29.34 in993.6 mb 0.00 in0.0 mm 0.00 in/hr0.0 mm/hr 0.00 in0.0 mm
07:10 AM 20.3°F-6.5°C 18.1°F-7.7°C 91% Calm Calm -- 29.33 in993.2 mb 0.00 in0.0 mm 0.00 in/hr0.0 mm/hr 0.00 in0.0 mm
07:00 AM 20.8°F-6.2°C 18.6°F-7.4°C 91% Calm Calm -- 29.33 in993.2 mb 0.00 in0.0 mm 0.00 in/hr0.0 mm/hr 0.00 in0.0 mm
06:40 AM 21.1°F-6.1°C 18.9°F-7.3°C 91% Calm Calm 5.0 mph8.0 kmh 29.31 in992.6 mb 0.00 in0.0 mm 0.00 in/hr0.0 mm/hr 0.00 in0.0 mm
06:30 AM 21.2°F-6.0°C 19.2°F-7.1°C 92% 5.0 mph N8.0 kmh N 5.0 mph8.0 kmh 29.30 in992.2 mb 0.00 in0.0 mm 0.00 in/hr0.0 mm/hr 0.00 in0.0 mm
06:10 AM 20.5°F-6.4°C 18.6°F-7.4°C 92% Calm Calm 3.0 mph4.8 kmh 29.29 in991.9 mb 0.00 in0.0 mm 0.00 in/hr0.0 mm/hr 0.00 in0.0 mm
06:00 AM 20.6°F-6.3°C 18.7°F-7.4°C 92% Calm Calm -- 29.29 in991.9 mb 0.00 in0.0 mm 0.00 in/hr0.0 mm/hr 0.00 in0.0 mm
05:40 AM 22.1°F-5.5°C 20.1°F-6.6°C 92% Calm Calm 4.0 mph6.4 kmh 29.28 in991.5 mb 0.00 in0.0 mm 0.00 in/hr0.0 mm/hr 0.00 in0.0 mm
05:30 AM 22.2°F-5.4°C 20.5°F-6.4°C 93% 1.0 mph NNW1.6 kmh NNW 3.0 mph4.8 kmh 29.27 in991.2 mb 0.00 in0.0 mm 0.00 in/hr0.0 mm/hr 0.00 in0.0 mm
05:10 AM 22.2°F-5.4°C 20.5°F-6.4°C 93% 2.0 mph N3.2 kmh N 4.0 mph6.4 kmh 29.26 in990.9 mb 0.00 in0.0 mm 0.00 in/hr0.0 mm/hr 0.00 in0.0 mm
05:00 AM 22.3°F-5.4°C 20.6°F-6.3°C 93% 3.0 mph N4.8 kmh N 4.0 mph6.4 kmh 29.25 in990.5 mb 0.00 in0.0 mm 0.00 in/hr0.0 mm/hr 0.00 in0.0 mm
04:40 AM 23.0°F-5.0°C 21.3°F-5.9°C 93% Calm Calm 3.0 mph4.8 kmh 29.24 in990.2 mb 0.00 in0.0 mm 0.00 in/hr0.0 mm/hr 0.00 in0.0 mm
04:30 AM 23.9°F-4.5°C 22.2°F-5.4°C 93% Calm Calm -- 29.23 in989.8 mb 0.00 in0.0 mm 0.00 in/hr0.0 mm/hr 0.00 in0.0 mm
04:10 AM 25.2°F-3.8°C 23.2°F-4.9°C 92% Calm Calm 1.0 mph1.6 kmh 29.22 in989.5 mb 0.00 in0.0 mm 0.00 in/hr0.0 mm/hr 0.00 in0.0 mm
04:00 AM 25.8°F-3.4°C 24.1°F-4.4°C 93% Calm Calm -- 29.21 in989.2 mb 0.00 in0.0 mm 0.00 in/hr0.0 mm/hr 0.00 in0.0 mm
03:40 AM 26.6°F-3.0°C 24.9°F-3.9°C 93% 6.0 mph NE9.7 kmh NE 9.0 mph14.5 kmh 29.19 in988.5 mb 0.00 in0.0 mm 0.00 in/hr0.0 mm/hr 0.00 in0.0 mm
03:30 AM 26.8°F-2.9°C 25.1°F-3.8°C 93% 3.0 mph NE4.8 kmh NE 5.0 mph8.0 kmh 29.19 in988.5 mb 0.00 in0.0 mm 0.00 in/hr0.0 mm/hr 0.00 in0.0 mm
03:10 AM 27.2°F-2.7°C 25.5°F-3.6°C 93% 9.0 mph NE14.5 kmh NE 15.0 mph24.1 kmh 29.18 in988.1 mb 0.00 in0.0 mm 0.00 in/hr0.0 mm/hr 0.00 in0.0 mm
03:00 AM 27.2°F-2.7°C 25.5°F-3.6°C 93% 11.0 mph NE17.7 kmh NE 11.0 mph17.7 kmh 29.17 in987.8 mb 0.00 in0.0 mm 0.00 in/hr0.0 mm/hr 0.00 in0.0 mm
02:40 AM 27.0°F-2.8°C 25.5°F-3.6°C 94% 7.0 mph NE11.3 kmh NE 14.0 mph22.5 kmh 29.15 in987.1 mb 0.00 in0.0 mm 0.00 in/hr0.0 mm/hr 0.00 in0.0 mm
02:30 AM 27.1°F-2.7°C 25.6°F-3.6°C 94% 1.0 mph NE1.6 kmh NE 3.0 mph4.8 kmh 29.15 in987.1 mb 0.00 in0.0 mm 0.00 in/hr0.0 mm/hr 0.00 in0.0 mm
02:10 AM 27.4°F-2.6°C 25.4°F-3.7°C 92% 5.0 mph N8.0 kmh N 11.0 mph17.7 kmh 29.14 in986.8 mb 0.00 in0.0 mm 0.00 in/hr0.0 mm/hr 0.00 in0.0 mm
02:00 AM 27.9°F-2.3°C 25.9°F-3.4°C 92% Calm Calm -- 29.13 in986.5 mb 0.00 in0.0 mm 0.00 in/hr0.0 mm/hr 0.00 in0.0 mm
01:40 AM 27.7°F-2.4°C 25.7°F-3.5°C 92% 11.0 mph E17.7 kmh E 13.0 mph20.9 kmh 29.12 in986.1 mb 0.00 in0.0 mm 0.00 in/hr0.0 mm/hr 0.00 in0.0 mm
01:30 AM 27.4°F-2.6°C 25.4°F-3.7°C 92% 9.0 mph ESE14.5 kmh ESE 11.0 mph17.7 kmh 29.12 in986.1 mb 0.00 in0.0 mm 0.00 in/hr0.0 mm/hr 0.00 in0.0 mm
01:10 AM 27.1°F-2.7°C 25.4°F-3.7°C 93% 13.0 mph ESE20.9 kmh ESE 17.0 mph27.4 kmh 29.12 in986.1 mb 0.00 in0.0 mm 0.00 in/hr0.0 mm/hr 0.00 in0.0 mm
01:00 AM 26.9°F-2.8°C 25.2°F-3.8°C 93% 15.0 mph ESE24.1 kmh ESE 15.0 mph24.1 kmh 29.12 in986.1 mb 0.00 in0.0 mm 0.00 in/hr0.0 mm/hr 0.00 in0.0 mm
12:40 AM 26.8°F-2.9°C 25.3°F-3.7°C 94% 15.0 mph ESE24.1 kmh ESE 20.0 mph32.2 kmh 29.11 in985.8 mb 0.00 in0.0 mm 0.00 in/hr0.0 mm/hr 0.00 in0.0 mm
12:30 AM 26.7°F-2.9°C 25.0°F-3.9°C 93% 11.0 mph ESE17.7 kmh ESE 14.0 mph22.5 kmh 29.12 in986.1 mb 0.00 in0.0 mm 0.00 in/hr0.0 mm/hr 0.00 in0.0 mm
12:10 AM 26.2°F-3.2°C 24.5°F-4.2°C 93% 5.0 mph E8.0 kmh E 11.0 mph17.7 kmh 29.14 in986.8 mb 0.00 in0.0 mm 0.00 in/hr0.0 mm/hr 0.00 in0.0 mm
12:00 AM 26.3°F-3.2°C 24.6°F-4.1°C 93% 7.0 mph ESE11.3 kmh ESE 7.0 mph11.3 kmh 29.15 in987.1 mb 0.00 in0.0 mm 0.00 in/hr0.0 mm/hr 0.00 in0.0 mm